createdAt,value
2022-10-05T00:01:28.686Z,11.17
2022-10-05T00:04:01.034Z,11.10
2022-10-05T00:06:29.460Z,11.06
2022-10-05T00:08:56.543Z,10.98
2022-10-05T00:11:23.027Z,11.36
2022-10-05T00:13:49.645Z,11.35
2022-10-05T00:16:19.102Z,10.78
2022-10-05T00:18:49.322Z,11.46
2022-10-05T00:21:18.830Z,11.59
2022-10-05T00:23:45.440Z,11.62
2022-10-05T00:26:16.755Z,11.70
2022-10-05T00:28:43.252Z,11.77
2022-10-05T00:31:21.276Z,11.70
2022-10-05T00:33:48.240Z,11.83
2022-10-05T00:36:15.557Z,11.81
2022-10-05T00:38:42.830Z,11.78
2022-10-05T00:41:11.598Z,11.91
2022-10-05T00:43:37.988Z,11.78
2022-10-05T00:46:14.356Z,11.83
2022-10-05T00:49:08.263Z,11.78
2022-10-05T00:51:37.082Z,11.83
2022-10-05T00:54:07.062Z,11.70
2022-10-05T00:56:47.457Z,11.60
2022-10-05T00:59:40.422Z,11.60
2022-10-05T01:02:12.975Z,11.73
2022-10-05T01:04:47.173Z,11.28
2022-10-05T01:07:37.757Z,11.05
2022-10-05T01:10:15.828Z,10.63
2022-10-05T01:12:49.035Z,11.24
2022-10-05T01:15:29.370Z,11.42
2022-10-05T01:18:08.807Z,11.21
2022-10-05T01:20:57.055Z,11.47
2022-10-05T01:24:06.207Z,11.28
2022-10-05T01:26:53.009Z,11.12
2022-10-05T01:29:23.830Z,11.16
2022-10-05T01:31:59.309Z,11.05
2022-10-05T01:34:44.709Z,11.29
2022-10-05T01:37:23.428Z,11.39
2022-10-05T01:40:08.018Z,11.05
2022-10-05T01:42:40.737Z,11.25
2022-10-05T01:45:31.600Z,10.83
2022-10-05T01:48:14.884Z,11.00
2022-10-05T01:50:51.316Z,11.15
2022-10-05T01:53:38.019Z,11.29
2022-10-05T01:56:06.575Z,11.27
2022-10-05T01:58:59.278Z,11.21
2022-10-05T02:01:57.262Z,11.31
2022-10-05T02:05:00.325Z,11.31
2022-10-05T02:07:24.421Z,11.40
2022-10-05T02:09:56.342Z,11.21
2022-10-05T02:12:25.509Z,11.34
2022-10-05T02:14:57.368Z,11.32
2022-10-05T02:17:27.442Z,11.18
2022-10-05T02:20:04.550Z,11.06
2022-10-05T02:22:37.549Z,11.31
2022-10-05T02:25:10.829Z,11.21
2022-10-05T02:27:44.059Z,10.98
2022-10-05T02:30:16.249Z,11.03
2022-10-05T02:33:06.465Z,10.89
2022-10-05T02:35:33.052Z,11.02
2022-10-05T02:38:14.716Z,11.00
2022-10-05T02:41:07.693Z,10.92
2022-10-05T02:43:44.350Z,10.86
2022-10-05T02:46:18.541Z,10.85
2022-10-05T02:49:07.059Z,10.99
2022-10-05T02:51:51.323Z,11.09
2022-10-05T02:54:24.176Z,11.01
2022-10-05T02:57:09.509Z,10.40
2022-10-05T02:59:47.439Z,10.74
2022-10-05T03:02:20.391Z,10.19
2022-10-05T03:05:00.577Z,10.33
2022-10-05T03:07:35.200Z,10.47
2022-10-05T03:10:10.468Z,10.34
2022-10-05T03:12:48.874Z,10.77
2022-10-05T03:15:48.813Z,10.86
2022-10-05T03:18:48.502Z,10.90
2022-10-05T03:21:33.767Z,10.23
2022-10-05T03:24:17.434Z,10.24
2022-10-05T03:27:06.000Z,10.65
2022-10-05T03:29:41.098Z,10.38
2022-10-05T03:32:26.535Z,10.71
2022-10-05T03:35:31.148Z,10.72
2022-10-05T03:38:16.174Z,10.75
2022-10-05T03:41:13.245Z,10.52
2022-10-05T03:44:00.208Z,10.43
2022-10-05T03:46:39.687Z,10.56
2022-10-05T03:49:24.812Z,10.72
2022-10-05T03:52:15.763Z,10.75
2022-10-05T03:54:45.890Z,10.62
2022-10-05T03:57:23.990Z,10.39
2022-10-05T03:59:59.322Z,10.60
2022-10-05T04:02:31.877Z,10.62
2022-10-05T04:05:03.726Z,10.63
2022-10-05T04:07:46.822Z,10.50
2022-10-05T04:10:25.413Z,10.22
2022-10-05T04:13:01.640Z,10.12
2022-10-05T04:15:35.285Z,10.22
2022-10-05T04:18:40.656Z,10.43
2022-10-05T04:21:23.747Z,10.30
2022-10-05T04:24:00.477Z,10.26
2022-10-05T04:26:50.983Z,10.22
2022-10-05T04:29:44.597Z,10.39
2022-10-05T04:32:31.276Z,10.22
2022-10-05T04:35:25.500Z,10.47
2022-10-05T04:38:11.078Z,10.08
2022-10-05T04:40:38.182Z,10.16
2022-10-05T04:43:36.002Z,10.21
2022-10-05T04:46:29.183Z,10.22
2022-10-05T04:49:07.788Z,10.44
2022-10-05T04:51:51.310Z,10.45
2022-10-05T04:54:56.286Z,10.18
2022-10-05T04:57:29.318Z,10.34
2022-10-05T05:00:09.625Z,10.58
2022-10-05T05:02:56.414Z,10.55
2022-10-05T05:05:34.807Z,10.45
2022-10-05T05:08:04.591Z,10.17
2022-10-05T05:11:13.641Z,9.89
2022-10-05T05:14:00.695Z,10.17
2022-10-05T05:16:38.194Z,10.07
2022-10-05T05:19:16.171Z,9.30
2022-10-05T05:22:27.946Z,9.98
2022-10-05T05:25:22.055Z,9.77
2022-10-05T05:28:01.338Z,9.97
2022-10-05T05:30:47.972Z,10.14
2022-10-05T05:33:31.201Z,10.28
2022-10-05T05:36:22.190Z,9.74
2022-10-05T05:39:08.918Z,9.56
2022-10-05T05:41:39.343Z,9.73
2022-10-05T05:44:26.000Z,9.95
2022-10-05T05:47:16.835Z,10.02
2022-10-05T05:50:30.324Z,9.23
2022-10-05T05:53:22.778Z,9.88
2022-10-05T05:56:04.514Z,9.75
2022-10-05T05:58:35.814Z,9.64
2022-10-05T06:01:30.617Z,9.79
2022-10-05T06:04:02.769Z,9.57
2022-10-05T06:06:36.335Z,9.51
2022-10-05T06:09:16.730Z,10.13
2022-10-05T06:11:57.084Z,10.04
2022-10-05T06:14:45.415Z,10.42
2022-10-05T06:17:12.029Z,10.31
2022-10-05T06:19:39.541Z,10.50
2022-10-05T06:22:17.320Z,10.75
2022-10-05T06:24:59.743Z,10.91
2022-10-05T06:27:38.808Z,11.15
2022-10-05T06:30:14.950Z,10.85
2022-10-05T06:33:12.390Z,11.00
2022-10-05T06:35:46.421Z,11.29
2022-10-05T06:38:34.987Z,11.32
2022-10-05T06:41:28.895Z,11.40
2022-10-05T06:44:01.107Z,11.42
2022-10-05T06:47:07.608Z,11.34
2022-10-05T06:50:09.117Z,11.48
2022-10-05T06:52:54.051Z,11.53
2022-10-05T06:55:30.786Z,11.56
2022-10-05T06:58:27.774Z,11.60
2022-10-05T07:01:06.443Z,11.79
2022-10-05T07:03:52.248Z,11.88
2022-10-05T07:06:37.445Z,12.36
2022-10-05T07:09:22.880Z,12.47
2022-10-05T07:12:03.763Z,12.30
2022-10-05T07:14:34.397Z,12.22
2022-10-05T07:17:12.553Z,12.35
2022-10-05T07:19:52.320Z,12.54
2022-10-05T07:22:41.512Z,12.54
2022-10-05T07:25:17.028Z,12.61
2022-10-05T07:28:11.417Z,12.41
2022-10-05T07:30:46.318Z,12.01
2022-10-05T07:33:21.932Z,11.87
2022-10-05T07:36:30.762Z,12.00
2022-10-05T07:39:12.603Z,12.09
2022-10-05T07:41:51.185Z,12.23
2022-10-05T07:44:29.658Z,12.30
2022-10-05T07:47:04.444Z,12.31
2022-10-05T07:50:03.284Z,12.95
2022-10-05T07:52:36.897Z,13.34
2022-10-05T07:55:27.360Z,13.57
2022-10-05T07:58:19.355Z,13.96
2022-10-05T08:00:56.623Z,13.79
2022-10-05T08:03:30.490Z,13.98
2022-10-05T08:05:58.588Z,13.89
2022-10-05T08:08:37.112Z,13.86
2022-10-05T08:11:38.488Z,13.56
2022-10-05T08:14:14.736Z,13.64
2022-10-05T08:16:42.251Z,13.72
2022-10-05T08:19:19.074Z,14.09
2022-10-05T08:21:52.573Z,14.08
2022-10-05T08:24:46.054Z,14.76
2022-10-05T08:27:15.398Z,14.61
2022-10-05T08:29:58.543Z,14.84
2022-10-05T08:32:29.364Z,14.27
2022-10-05T08:35:13.841Z,14.71
2022-10-05T08:37:42.494Z,14.44
2022-10-05T08:40:33.795Z,14.63
2022-10-05T08:43:37.937Z,14.85
2022-10-05T08:46:31.136Z,15.19
2022-10-05T08:49:12.690Z,15.09
2022-10-05T08:51:42.173Z,15.22
2022-10-05T08:54:30.473Z,14.90
2022-10-05T08:57:22.215Z,15.10
2022-10-05T09:00:10.882Z,15.39
2022-10-05T09:02:56.066Z,15.27
2022-10-05T09:05:50.461Z,15.38
2022-10-05T09:08:29.760Z,15.62
2022-10-05T09:11:10.067Z,16.22
2022-10-05T09:13:47.044Z,16.07
2022-10-05T09:16:24.290Z,16.13
2022-10-05T09:19:32.885Z,16.18
2022-10-05T09:22:38.343Z,15.86
2022-10-05T09:25:32.585Z,16.15
2022-10-05T09:28:05.715Z,16.45
2022-10-05T09:30:52.874Z,16.30
2022-10-05T09:33:38.641Z,16.73
2022-10-05T09:36:16.278Z,16.80
2022-10-05T09:39:13.007Z,16.98
2022-10-05T09:42:13.428Z,17.11
2022-10-05T09:45:35.813Z,17.46
2022-10-05T09:48:22.086Z,17.52
2022-10-05T09:51:07.883Z,17.12
2022-10-05T09:54:12.225Z,17.18
2022-10-05T09:56:43.833Z,17.30
2022-10-05T09:59:42.173Z,17.52
2022-10-05T10:02:20.762Z,17.46
2022-10-05T10:05:16.777Z,17.41
2022-10-05T10:08:11.952Z,17.94
2022-10-05T10:11:00.454Z,18.32
2022-10-05T10:13:53.287Z,18.00
2022-10-05T10:16:41.429Z,18.08
2022-10-05T10:19:24.098Z,18.34
2022-10-05T10:22:09.398Z,18.55
2022-10-05T10:24:48.285Z,18.47
2022-10-05T10:27:42.291Z,18.65
2022-10-05T10:30:40.778Z,18.66
2022-10-05T10:33:25.666Z,18.75
2022-10-05T10:36:06.922Z,18.96
2022-10-05T10:38:40.547Z,18.87
2022-10-05T10:41:37.670Z,19.19
2022-10-05T10:44:22.614Z,19.19
2022-10-05T10:47:14.001Z,19.25
2022-10-05T10:50:19.437Z,19.54
2022-10-05T10:53:40.172Z,19.74
2022-10-05T10:56:34.169Z,19.91
2022-10-05T10:59:27.851Z,20.17
2022-10-05T11:02:37.548Z,20.03
2022-10-05T11:05:26.084Z,20.11
2022-10-05T11:08:22.885Z,20.21
2022-10-05T11:11:08.175Z,20.33
2022-10-05T11:13:37.603Z,20.49
2022-10-05T11:16:15.893Z,20.23
2022-10-05T11:19:16.572Z,20.40
2022-10-05T11:22:05.360Z,20.15
2022-10-05T11:24:54.805Z,20.34
2022-10-05T11:27:47.053Z,20.65
2022-10-05T11:31:02.002Z,20.53
2022-10-05T11:33:34.858Z,20.43
2022-10-05T11:36:18.807Z,20.35
2022-10-05T11:39:17.660Z,20.54
2022-10-05T11:42:05.775Z,20.49
2022-10-05T11:44:35.537Z,20.52
2022-10-05T11:47:10.711Z,20.77
2022-10-05T11:49:44.781Z,20.91
2022-10-05T11:52:21.524Z,21.07
2022-10-05T11:55:19.400Z,20.90
2022-10-05T11:57:53.359Z,20.66
2022-10-05T12:00:22.952Z,20.79
2022-10-05T12:02:58.549Z,21.32
2022-10-05T12:05:41.479Z,21.17
2022-10-05T12:08:26.087Z,21.20
2022-10-05T12:11:11.410Z,21.63
2022-10-05T12:13:41.067Z,21.62
2022-10-05T12:16:16.842Z,21.66
2022-10-05T12:18:52.488Z,21.69
2022-10-05T12:21:25.050Z,21.86
2022-10-05T12:24:26.886Z,22.00
2022-10-05T12:27:04.196Z,22.38
2022-10-05T12:29:39.343Z,22.32
2022-10-05T12:32:22.533Z,22.13
2022-10-05T12:35:36.247Z,21.82
2022-10-05T12:38:28.993Z,22.44
2022-10-05T12:41:05.785Z,22.63
2022-10-05T12:43:34.867Z,22.51
2022-10-05T12:46:09.094Z,22.76
2022-10-05T12:48:44.812Z,22.88
2022-10-05T12:51:25.177Z,22.94
2022-10-05T12:53:54.351Z,22.72
2022-10-05T12:56:28.378Z,22.80
2022-10-05T12:58:54.688Z,23.02
2022-10-05T13:01:41.840Z,23.29
2022-10-05T13:04:17.798Z,23.08
2022-10-05T13:07:19.836Z,23.08
2022-10-05T13:09:58.678Z,23.27
2022-10-05T13:12:42.842Z,23.39
2022-10-05T13:15:22.680Z,23.51
2022-10-05T13:18:10.372Z,23.18
2022-10-05T13:20:45.588Z,23.15
2022-10-05T13:23:36.434Z,22.84
2022-10-05T13:26:13.307Z,22.86
2022-10-05T13:29:00.375Z,22.83
2022-10-05T13:31:40.878Z,22.97
2022-10-05T13:34:22.911Z,23.25
2022-10-05T13:37:16.055Z,23.12
2022-10-05T13:40:05.821Z,22.81
2022-10-05T13:42:45.793Z,22.82
2022-10-05T13:45:20.669Z,22.66
2022-10-05T13:47:59.693Z,22.61
2022-10-05T13:50:34.553Z,22.62
2022-10-05T13:53:18.303Z,22.85
2022-10-05T13:55:55.238Z,22.95
2022-10-05T13:58:25.401Z,23.03
2022-10-05T14:00:57.648Z,23.10
2022-10-05T14:03:25.104Z,23.17
2022-10-05T14:05:57.384Z,22.93
2022-10-05T14:08:35.151Z,23.61
2022-10-05T14:11:21.687Z,23.63
2022-10-05T14:13:49.045Z,23.88
2022-10-05T14:16:26.128Z,23.87
2022-10-05T14:19:04.783Z,23.56
2022-10-05T14:21:32.887Z,23.55
2022-10-05T14:24:32.251Z,23.13
2022-10-05T14:27:27.361Z,23.31
2022-10-05T14:30:17.704Z,23.55
2022-10-05T14:32:59.439Z,23.23
2022-10-05T14:35:31.264Z,23.58
2022-10-05T14:38:01.522Z,22.96
2022-10-05T14:40:30.972Z,23.32
2022-10-05T14:42:59.976Z,23.32
2022-10-05T14:45:29.937Z,22.86
2022-10-05T14:48:10.497Z,22.84
2022-10-05T14:50:55.970Z,22.98
2022-10-05T14:53:24.925Z,22.94
2022-10-05T14:56:08.886Z,22.86
2022-10-05T14:58:56.230Z,22.94
2022-10-05T15:01:31.470Z,22.89
2022-10-05T15:04:20.464Z,22.79
2022-10-05T15:06:51.135Z,23.05
2022-10-05T15:09:41.913Z,23.06
2022-10-05T15:12:08.929Z,23.09
2022-10-05T15:14:42.001Z,23.01
2022-10-05T15:17:34.670Z,22.96
2022-10-05T15:20:26.214Z,23.23
2022-10-05T15:23:26.248Z,23.07
2022-10-05T15:26:01.820Z,22.99
2022-10-05T15:28:34.596Z,22.96
2022-10-05T15:31:13.857Z,22.82
2022-10-05T15:33:53.598Z,22.82
2022-10-05T15:36:36.807Z,22.77
2022-10-05T15:39:34.640Z,22.64
2022-10-05T15:42:03.943Z,22.61
2022-10-05T15:44:52.171Z,22.42
2022-10-05T15:47:43.736Z,22.47
2022-10-05T15:50:18.856Z,22.35
2022-10-05T15:52:50.680Z,22.14
2022-10-05T15:55:30.059Z,21.99
2022-10-05T15:58:14.957Z,21.85
2022-10-05T16:00:57.886Z,21.65
2022-10-05T16:03:48.418Z,21.52
2022-10-05T16:06:55.551Z,21.38
2022-10-05T16:09:37.108Z,21.14
2022-10-05T16:12:19.034Z,21.07
2022-10-05T16:14:56.944Z,21.03
2022-10-05T16:17:36.616Z,20.99
2022-10-05T16:20:15.236Z,20.88
2022-10-05T16:23:01.967Z,20.56
2022-10-05T16:25:46.987Z,20.51
2022-10-05T16:28:16.632Z,20.55
2022-10-05T16:30:55.155Z,20.50
2022-10-05T16:33:30.188Z,20.37
2022-10-05T16:36:07.322Z,20.30
2022-10-05T16:41:20.101Z,20.13
2022-10-05T16:44:04.727Z,19.74
2022-10-05T16:46:45.961Z,19.83
2022-10-05T16:49:35.518Z,19.77
2022-10-05T16:52:06.553Z,19.57
2022-10-05T16:54:43.080Z,19.50
2022-10-05T16:57:18.219Z,19.36
2022-10-05T17:00:03.601Z,19.22
2022-10-05T17:02:54.361Z,19.15
2022-10-05T17:05:32.842Z,18.60
2022-10-05T17:08:15.419Z,18.81
2022-10-05T17:10:59.958Z,18.84
2022-10-05T17:13:50.446Z,18.85
2022-10-05T17:16:29.184Z,18.67
2022-10-05T17:19:12.756Z,18.66
2022-10-05T17:21:44.379Z,18.63
2022-10-05T17:24:36.850Z,18.53
2022-10-05T17:27:17.840Z,18.51
2022-10-05T17:29:49.813Z,18.41
2022-10-05T17:32:16.248Z,18.29
2022-10-05T17:35:01.130Z,18.21
2022-10-05T17:37:35.438Z,18.16
2022-10-05T17:40:31.275Z,18.04
2022-10-05T17:43:01.074Z,17.94
2022-10-05T17:45:33.534Z,17.31
2022-10-05T17:48:05.930Z,17.51
2022-10-05T17:51:07.467Z,17.72
2022-10-05T17:53:52.245Z,17.36
2022-10-05T17:56:20.199Z,17.51
2022-10-05T17:58:54.494Z,17.55
2022-10-05T18:01:34.356Z,17.53
2022-10-05T18:04:13.172Z,17.63
2022-10-05T18:06:47.976Z,17.60
2022-10-05T18:09:16.884Z,17.55
2022-10-05T18:11:45.152Z,17.46
2022-10-05T18:14:19.048Z,17.39
2022-10-05T18:17:03.511Z,17.26
2022-10-05T18:19:31.381Z,17.28
2022-10-05T18:22:27.625Z,16.89
2022-10-05T18:25:03.802Z,17.12
2022-10-05T18:27:34.190Z,17.13
2022-10-05T18:30:18.116Z,17.11
2022-10-05T18:33:04.289Z,16.95
2022-10-05T18:35:56.523Z,16.93
2022-10-05T18:38:51.195Z,16.85
2022-10-05T18:41:29.477Z,16.79
2022-10-05T18:44:14.262Z,16.80
2022-10-05T18:47:01.867Z,16.78
2022-10-05T18:49:47.248Z,16.68
2022-10-05T18:52:39.067Z,16.63
2022-10-05T18:55:17.432Z,16.63
2022-10-05T18:58:13.373Z,16.47
2022-10-05T19:00:58.418Z,16.54
2022-10-05T19:03:40.455Z,16.58
2022-10-05T19:06:25.563Z,16.58
2022-10-05T19:09:08.586Z,16.60
2022-10-05T19:11:52.451Z,16.58
2022-10-05T19:14:36.856Z,16.55
2022-10-05T19:17:03.754Z,16.45
2022-10-05T19:19:43.782Z,16.50
2022-10-05T19:22:28.588Z,16.54
2022-10-05T19:25:02.181Z,16.41
2022-10-05T19:27:34.564Z,16.37
2022-10-05T19:30:14.610Z,16.48
2022-10-05T19:33:08.846Z,16.40
2022-10-05T19:35:42.301Z,16.36
2022-10-05T19:38:23.723Z,16.36
2022-10-05T19:41:13.488Z,16.37
2022-10-05T19:44:04.540Z,16.35
2022-10-05T19:47:10.638Z,16.34
2022-10-05T19:49:57.020Z,16.31
2022-10-05T19:52:49.004Z,16.21
2022-10-05T19:55:26.310Z,16.20
2022-10-05T19:58:01.186Z,16.20
2022-10-05T20:00:31.474Z,16.25
2022-10-05T20:03:19.686Z,16.21
2022-10-05T20:05:47.479Z,16.20
2022-10-05T20:08:19.487Z,16.14
2022-10-05T20:11:13.307Z,16.11
2022-10-05T20:13:41.802Z,16.17
2022-10-05T20:16:45.374Z,16.07
2022-10-05T20:19:47.391Z,16.08
2022-10-05T20:22:33.443Z,16.04
2022-10-05T20:25:06.224Z,15.79
2022-10-05T20:27:46.455Z,15.95
2022-10-05T20:30:18.413Z,15.94
2022-10-05T20:32:52.740Z,15.97
2022-10-05T20:35:22.349Z,15.93
2022-10-05T20:37:49.959Z,15.76
2022-10-05T20:40:18.668Z,15.82
2022-10-05T20:42:45.437Z,15.84
2022-10-05T20:45:13.162Z,15.79
2022-10-05T20:47:40.397Z,15.73
2022-10-05T20:50:09.074Z,15.70
2022-10-05T20:52:37.372Z,15.73
2022-10-05T20:55:05.291Z,15.75
2022-10-05T20:57:32.421Z,15.65
2022-10-05T20:59:58.913Z,15.69
2022-10-05T21:02:25.445Z,15.66
2022-10-05T21:04:52.380Z,15.69
2022-10-05T21:07:23.248Z,15.56
2022-10-05T21:09:50.967Z,15.32
2022-10-05T21:12:17.483Z,15.47
2022-10-05T21:14:44.044Z,15.46
2022-10-05T21:17:11.968Z,15.69
2022-10-05T21:19:39.342Z,15.67
2022-10-05T21:22:07.469Z,15.60
2022-10-05T21:24:35.857Z,15.62
2022-10-05T21:27:02.787Z,15.62
2022-10-05T21:29:29.805Z,15.59
2022-10-05T21:31:56.642Z,15.68
2022-10-05T21:34:23.696Z,15.67
2022-10-05T21:36:50.247Z,15.50
2022-10-05T21:39:17.014Z,15.46
2022-10-05T21:41:43.483Z,15.58
2022-10-05T21:44:10.110Z,15.60
2022-10-05T21:46:37.643Z,15.46
2022-10-05T21:49:06.379Z,15.28
2022-10-05T21:51:33.951Z,15.41
2022-10-05T21:54:03.649Z,15.49
2022-10-05T21:56:40.769Z,15.53
2022-10-05T21:59:09.497Z,15.47
2022-10-05T22:01:36.608Z,15.44
2022-10-05T22:04:04.119Z,15.51
2022-10-05T22:06:31.270Z,15.53
2022-10-05T22:08:59.477Z,15.52
2022-10-05T22:11:26.445Z,15.47
2022-10-05T22:13:53.241Z,15.49
2022-10-05T22:16:21.881Z,15.42
2022-10-05T22:18:48.919Z,15.38
2022-10-05T22:21:15.961Z,15.33
2022-10-05T22:23:44.995Z,15.19
2022-10-05T22:26:13.931Z,15.16
2022-10-05T22:28:42.332Z,15.18
2022-10-05T22:31:09.569Z,15.24
2022-10-05T22:33:37.112Z,15.25
2022-10-05T22:36:04.661Z,15.22
2022-10-05T22:38:31.591Z,15.22
2022-10-05T22:40:58.480Z,15.21
2022-10-05T22:43:26.978Z,15.13
2022-10-05T22:45:54.258Z,15.15
2022-10-05T22:48:20.895Z,15.14
2022-10-05T22:50:47.481Z,15.18
2022-10-05T22:53:14.257Z,15.19
2022-10-05T22:55:40.959Z,15.06
2022-10-05T22:58:07.649Z,14.93
2022-10-05T23:00:56.556Z,14.90
2022-10-05T23:03:21.305Z,14.99
2022-10-05T23:05:47.828Z,14.93
2022-10-05T23:08:14.448Z,15.09
2022-10-05T23:10:40.980Z,15.04
2022-10-05T23:13:08.670Z,15.05
2022-10-05T23:15:35.788Z,14.96
2022-10-05T23:18:02.362Z,15.02
2022-10-05T23:20:29.075Z,14.94
2022-10-05T23:22:55.747Z,15.00
2022-10-05T23:25:22.353Z,15.24
2022-10-05T23:27:49.226Z,15.26
2022-10-05T23:30:15.721Z,15.27
2022-10-05T23:32:43.658Z,15.27
2022-10-05T23:35:12.257Z,15.10
2022-10-05T23:37:43.611Z,15.18
2022-10-05T23:40:14.109Z,15.23
2022-10-05T23:42:41.114Z,15.26
2022-10-05T23:45:11.443Z,15.23
2022-10-05T23:47:38.936Z,15.33
2022-10-05T23:50:06.948Z,15.31
2022-10-05T23:52:34.495Z,15.32
2022-10-05T23:55:02.173Z,15.29
2022-10-05T23:57:28.746Z,15.28
2022-10-05T23:59:56.304Z,15.33
